sensor_id;sensor_type;location;lat;lon;timestamp;pressure;altitude;pressure_sealevel;temperature;humidity
12624;BME280;6377;42.836;23.998;2023-03-05T00:00:26;95218.50;;;8.15;100.00
12624;BME280;6377;42.836;23.998;2023-03-05T00:02:53;95218.97;;;8.19;100.00
12624;BME280;6377;42.836;23.998;2023-03-05T00:05:20;95218.97;;;8.19;100.00
12624;BME280;6377;42.836;23.998;2023-03-05T00:07:49;95208.25;;;8.20;100.00
12624;BME280;6377;42.836;23.998;2023-03-05T00:10:16;95197.38;;;7.93;100.00
12624;BME280;6377;42.836;23.998;2023-03-05T00:12:43;95087.13;;;7.44;100.00
12624;BME280;6377;42.836;23.998;2023-03-05T00:15:11;95202.16;;;8.20;100.00
12624;BME280;6377;42.836;23.998;2023-03-05T00:17:38;95178.72;;;8.02;100.00
12624;BME280;6377;42.836;23.998;2023-03-05T00:20:07;95197.91;;;8.19;100.00
12624;BME280;6377;42.836;23.998;2023-03-05T00:22:34;95175.69;;;8.13;100.00
12624;BME280;6377;42.836;23.998;2023-03-05T00:25:04;95099.13;;;7.69;100.00
12624;BME280;6377;42.836;23.998;2023-03-05T00:27:31;95202.59;;;8.31;100.00
12624;BME280;6377;42.836;23.998;2023-03-05T00:29:58;95187.63;;;8.32;100.00
12624;BME280;6377;42.836;23.998;2023-03-05T00:32:25;95184.81;;;8.33;100.00
12624;BME280;6377;42.836;23.998;2023-03-05T00:34:53;95187.63;;;8.32;100.00
12624;BME280;6377;42.836;23.998;2023-03-05T00:37:20;95181.75;;;8.22;100.00
12624;BME280;6377;42.836;23.998;2023-03-05T00:39:47;95189.03;;;8.12;100.00
12624;BME280;6377;42.836;23.998;2023-03-05T00:42:16;95155.66;;;7.81;100.00
12624;BME280;6377;42.836;23.998;2023-03-05T00:44:43;95189.81;;;7.98;100.00
12624;BME280;6377;42.836;23.998;2023-03-05T00:47:10;95087.94;;;7.22;100.00
12624;BME280;6377;42.836;23.998;2023-03-05T00:49:37;95178.00;;;7.63;100.00
12624;BME280;6377;42.836;23.998;2023-03-05T00:52:04;95157.03;;;7.39;100.00
12624;BME280;6377;42.836;23.998;2023-03-05T00:54:32;95175.25;;;7.48;100.00
12624;BME280;6377;42.836;23.998;2023-03-05T00:56:59;95175.09;;;7.50;100.00
12624;BME280;6377;42.836;23.998;2023-03-05T00:59:27;95179.03;;;7.54;100.00
12624;BME280;6377;42.836;23.998;2023-03-05T01:01:55;95175.69;;;7.60;100.00
12624;BME280;6377;42.836;23.998;2023-03-05T01:04:22;95172.38;;;7.66;100.00
12624;BME280;6377;42.836;23.998;2023-03-05T01:06:49;95193.09;;;7.61;100.00
12624;BME280;6377;42.836;23.998;2023-03-05T01:09:16;95165.88;;;7.46;100.00
12624;BME280;6377;42.836;23.998;2023-03-05T01:11:44;95168.75;;;7.36;100.00
12624;BME280;6377;42.836;23.998;2023-03-05T01:14:11;95168.59;;;7.29;100.00
12624;BME280;6377;42.836;23.998;2023-03-05T01:16:40;95169.47;;;7.14;100.00
12624;BME280;6377;42.836;23.998;2023-03-05T01:19:07;95160.94;;;7.12;100.00
12624;BME280;6377;42.836;23.998;2023-03-05T01:21:35;95160.75;;;7.13;100.00
12624;BME280;6377;42.836;23.998;2023-03-05T01:24:03;95161.41;;;7.15;100.00
12624;BME280;6377;42.836;23.998;2023-03-05T01:26:30;95119.38;;;6.99;100.00
12624;BME280;6377;42.836;23.998;2023-03-05T01:28:57;95163.66;;;7.26;100.00
12624;BME280;6377;42.836;23.998;2023-03-05T01:31:25;95165.78;;;7.31;100.00
12624;BME280;6377;42.836;23.998;2023-03-05T01:33:53;95142.00;;;7.16;100.00
12624;BME280;6377;42.836;23.998;2023-03-05T01:36:21;95171.19;;;7.38;100.00
12624;BME280;6377;42.836;23.998;2023-03-05T01:38:50;95169.41;;;7.30;100.00
12624;BME280;6377;42.836;23.998;2023-03-05T01:41:18;95139.38;;;7.16;100.00
12624;BME280;6377;42.836;23.998;2023-03-05T01:43:47;95161.81;;;7.35;100.00
12624;BME280;6377;42.836;23.998;2023-03-05T01:46:29;95146.47;;;7.16;100.00
12624;BME280;6377;42.836;23.998;2023-03-05T01:49:16;95167.94;;;7.27;100.00
12624;BME280;6377;42.836;23.998;2023-03-05T01:51:51;95167.28;;;7.33;100.00
12624;BME280;6377;42.836;23.998;2023-03-05T01:54:24;95153.78;;;7.28;100.00
12624;BME280;6377;42.836;23.998;2023-03-05T01:56:55;95171.25;;;7.13;100.00
12624;BME280;6377;42.836;23.998;2023-03-05T01:59:24;95166.56;;;7.01;100.00
12624;BME280;6377;42.836;23.998;2023-03-05T02:01:55;95149.06;;;6.69;100.00
12624;BME280;6377;42.836;23.998;2023-03-05T02:04:29;95167.09;;;6.80;100.00
12624;BME280;6377;42.836;23.998;2023-03-05T02:06:58;95111.81;;;6.49;100.00
12624;BME280;6377;42.836;23.998;2023-03-05T02:09:26;95167.56;;;6.92;100.00
12624;BME280;6377;42.836;23.998;2023-03-05T02:11:55;95135.38;;;6.82;100.00
12624;BME280;6377;42.836;23.998;2023-03-05T02:14:23;95163.41;;;7.05;100.00
12624;BME280;6377;42.836;23.998;2023-03-05T02:16:51;95141.09;;;6.93;100.00
12624;BME280;6377;42.836;23.998;2023-03-05T02:19:18;95123.69;;;6.92;100.00
12624;BME280;6377;42.836;23.998;2023-03-05T02:21:48;95171.41;;;7.20;100.00
12624;BME280;6377;42.836;23.998;2023-03-05T02:24:16;95137.44;;;7.02;100.00
12624;BME280;6377;42.836;23.998;2023-03-05T02:26:45;95161.88;;;7.27;100.00
12624;BME280;6377;42.836;23.998;2023-03-05T02:29:16;95165.13;;;7.29;100.00
12624;BME280;6377;42.836;23.998;2023-03-05T02:31:44;95168.09;;;7.26;100.00
12624;BME280;6377;42.836;23.998;2023-03-05T02:34:11;95157.97;;;7.15;100.00
12624;BME280;6377;42.836;23.998;2023-03-05T02:36:38;95170.25;;;7.30;100.00
12624;BME280;6377;42.836;23.998;2023-03-05T02:39:07;95151.88;;;7.14;100.00
12624;BME280;6377;42.836;23.998;2023-03-05T02:41:35;95173.75;;;7.15;100.00
12624;BME280;6377;42.836;23.998;2023-03-05T02:44:03;95177.38;;;7.06;100.00
12624;BME280;6377;42.836;23.998;2023-03-05T02:46:30;95207.78;;;7.00;100.00
12624;BME280;6377;42.836;23.998;2023-03-05T02:48:57;95166.72;;;7.07;100.00
12624;BME280;6377;42.836;23.998;2023-03-05T02:51:24;95155.56;;;6.97;100.00
12624;BME280;6377;42.836;23.998;2023-03-05T02:53:52;95148.03;;;6.86;100.00
12624;BME280;6377;42.836;23.998;2023-03-05T02:56:20;95167.50;;;7.16;100.00
12624;BME280;6377;42.836;23.998;2023-03-05T02:58:48;95169.13;;;7.17;100.00
12624;BME280;6377;42.836;23.998;2023-03-05T03:01:15;95092.19;;;6.76;100.00
12624;BME280;6377;42.836;23.998;2023-03-05T03:03:42;95129.91;;;6.99;100.00
12624;BME280;6377;42.836;23.998;2023-03-05T03:06:09;95078.75;;;6.71;100.00
12624;BME280;6377;42.836;23.998;2023-03-05T03:08:36;95175.63;;;7.37;100.00
12624;BME280;6377;42.836;23.998;2023-03-05T03:11:05;95032.53;;;6.46;100.00
12624;BME280;6377;42.836;23.998;2023-03-05T03:13:34;95173.97;;;7.44;100.00
12624;BME280;6377;42.836;23.998;2023-03-05T03:16:03;95174.94;;;7.43;100.00
12624;BME280;6377;42.836;23.998;2023-03-05T03:18:30;95171.38;;;7.36;100.00
12624;BME280;6377;42.836;23.998;2023-03-05T03:20:58;95177.69;;;7.19;100.00
12624;BME280;6377;42.836;23.998;2023-03-05T03:23:25;95174.09;;;7.04;100.00
12624;BME280;6377;42.836;23.998;2023-03-05T03:25:52;95176.41;;;6.99;100.00
12624;BME280;6377;42.836;23.998;2023-03-05T03:28:20;95172.97;;;6.98;100.00
12624;BME280;6377;42.836;23.998;2023-03-05T03:30:48;95093.75;;;6.46;100.00
12624;BME280;6377;42.836;23.998;2023-03-05T03:33:16;95164.44;;;6.88;100.00
12624;BME280;6377;42.836;23.998;2023-03-05T03:35:43;95173.63;;;7.00;100.00
12624;BME280;6377;42.836;23.998;2023-03-05T03:38:11;95171.13;;;6.99;100.00
12624;BME280;6377;42.836;23.998;2023-03-05T03:40:38;95032.09;;;6.02;100.00
12624;BME280;6377;42.836;23.998;2023-03-05T03:43:06;95176.41;;;6.99;100.00
12624;BME280;6377;42.836;23.998;2023-03-05T03:45:34;95161.66;;;6.90;100.00
12624;BME280;6377;42.836;23.998;2023-03-05T03:48:02;95176.59;;;6.97;100.00
12624;BME280;6377;42.836;23.998;2023-03-05T03:50:30;95180.84;;;7.06;100.00
12624;BME280;6377;42.836;23.998;2023-03-05T03:52:57;95181.50;;;7.00;100.00
12624;BME280;6377;42.836;23.998;2023-03-05T03:55:24;95182.97;;;7.03;100.00
12624;BME280;6377;42.836;23.998;2023-03-05T03:57:51;95184.78;;;7.10;100.00
12624;BME280;6377;42.836;23.998;2023-03-05T04:00:19;95176.53;;;7.13;100.00
12624;BME280;6377;42.836;23.998;2023-03-05T04:02:46;95163.25;;;7.07;100.00
12624;BME280;6377;42.836;23.998;2023-03-05T04:05:15;95185.88;;;7.24;100.00
12624;BME280;6377;42.836;23.998;2023-03-05T04:07:42;95187.00;;;7.29;100.00
12624;BME280;6377;42.836;23.998;2023-03-05T04:10:10;95185.06;;;7.23;100.00
12624;BME280;6377;42.836;23.998;2023-03-05T04:12:38;95154.91;;;6.95;100.00
12624;BME280;6377;42.836;23.998;2023-03-05T04:15:08;95141.97;;;6.69;100.00
12624;BME280;6377;42.836;23.998;2023-03-05T04:17:35;95180.88;;;6.98;100.00
12624;BME280;6377;42.836;23.998;2023-03-05T04:20:03;95164.78;;;6.85;100.00
12624;BME280;6377;42.836;23.998;2023-03-05T04:22:34;95133.63;;;6.66;100.00
12624;BME280;6377;42.836;23.998;2023-03-05T04:25:01;95179.88;;;6.91;100.00
12624;BME280;6377;42.836;23.998;2023-03-05T04:27:31;95080.69;;;6.22;100.00
12624;BME280;6377;42.836;23.998;2023-03-05T04:29:59;95181.53;;;6.92;100.00
12624;BME280;6377;42.836;23.998;2023-03-05T04:32:26;95182.00;;;6.96;100.00
12624;BME280;6377;42.836;23.998;2023-03-05T04:34:54;95054.88;;;6.26;100.00
12624;BME280;6377;42.836;23.998;2023-03-05T04:37:22;95164.59;;;6.95;100.00
12624;BME280;6377;42.836;23.998;2023-03-05T04:39:50;95190.16;;;7.17;100.00
12624;BME280;6377;42.836;23.998;2023-03-05T04:42:17;95153.72;;;7.06;100.00
12624;BME280;6377;42.836;23.998;2023-03-05T04:44:46;95183.41;;;7.22;100.00
12624;BME280;6377;42.836;23.998;2023-03-05T04:47:13;95180.50;;;7.09;100.00
12624;BME280;6377;42.836;23.998;2023-03-05T04:49:40;95165.88;;;6.99;100.00
12624;BME280;6377;42.836;23.998;2023-03-05T04:52:07;95174.41;;;7.09;100.00
12624;BME280;6377;42.836;23.998;2023-03-05T04:54:36;95150.31;;;6.89;100.00
12624;BME280;6377;42.836;23.998;2023-03-05T04:57:05;95157.06;;;6.75;100.00
12624;BME280;6377;42.836;23.998;2023-03-05T04:59:32;95178.69;;;7.10;100.00
12624;BME280;6377;42.836;23.998;2023-03-05T05:01:59;95133.09;;;6.87;100.00
12624;BME280;6377;42.836;23.998;2023-03-05T05:04:26;95183.25;;;7.24;100.00
12624;BME280;6377;42.836;23.998;2023-03-05T05:06:54;95181.78;;;7.21;100.00
12624;BME280;6377;42.836;23.998;2023-03-05T05:09:22;95141.44;;;6.90;100.00
12624;BME280;6377;42.836;23.998;2023-03-05T05:11:49;95062.59;;;6.27;100.00
12624;BME280;6377;42.836;23.998;2023-03-05T05:14:18;95199.22;;;7.14;100.00
12624;BME280;6377;42.836;23.998;2023-03-05T05:16:45;95029.47;;;6.02;100.00
12624;BME280;6377;42.836;23.998;2023-03-05T05:19:12;95120.97;;;6.61;100.00
12624;BME280;6377;42.836;23.998;2023-03-05T05:21:39;95166.41;;;6.94;100.00
12624;BME280;6377;42.836;23.998;2023-03-05T05:24:07;95163.28;;;6.91;100.00
12624;BME280;6377;42.836;23.998;2023-03-05T05:26:34;95195.75;;;7.14;100.00
12624;BME280;6377;42.836;23.998;2023-03-05T05:29:01;95100.47;;;6.57;100.00
12624;BME280;6377;42.836;23.998;2023-03-05T05:31:30;95126.50;;;6.83;100.00
12624;BME280;6377;42.836;23.998;2023-03-05T05:33:57;95224.34;;;7.25;100.00
12624;BME280;6377;42.836;23.998;2023-03-05T05:36:25;95198.50;;;7.28;100.00
12624;BME280;6377;42.836;23.998;2023-03-05T05:38:52;95180.34;;;7.03;100.00
12624;BME280;6377;42.836;23.998;2023-03-05T05:41:19;95192.50;;;7.04;100.00
12624;BME280;6377;42.836;23.998;2023-03-05T05:43:46;95196.63;;;6.98;100.00
12624;BME280;6377;42.836;23.998;2023-03-05T05:46:16;95194.47;;;7.02;100.00
12624;BME280;6377;42.836;23.998;2023-03-05T05:48:45;95172.69;;;6.77;100.00
12624;BME280;6377;42.836;23.998;2023-03-05T05:51:14;95192.16;;;7.15;100.00
12624;BME280;6377;42.836;23.998;2023-03-05T05:53:42;95191.47;;;7.21;100.00
12624;BME280;6377;42.836;23.998;2023-03-05T05:56:10;95198.19;;;7.23;100.00
12624;BME280;6377;42.836;23.998;2023-03-05T05:58:39;95203.63;;;7.30;100.00
12624;BME280;6377;42.836;23.998;2023-03-05T06:01:15;95205.72;;;7.34;100.00
12624;BME280;6377;42.836;23.998;2023-03-05T06:03:42;95212.97;;;7.32;100.00
12624;BME280;6377;42.836;23.998;2023-03-05T06:06:12;95210.69;;;7.29;100.00
12624;BME280;6377;42.836;23.998;2023-03-05T06:08:40;95098.50;;;6.59;100.00
12624;BME280;6377;42.836;23.998;2023-03-05T06:11:08;95214.47;;;7.27;100.00
12624;BME280;6377;42.836;23.998;2023-03-05T06:13:36;95207.63;;;6.94;100.00
12624;BME280;6377;42.836;23.998;2023-03-05T06:16:06;95219.63;;;7.04;100.00
12624;BME280;6377;42.836;23.998;2023-03-05T06:18:34;95204.34;;;7.00;100.00
12624;BME280;6377;42.836;23.998;2023-03-05T06:21:03;95226.50;;;7.13;100.00
12624;BME280;6377;42.836;23.998;2023-03-05T06:23:32;95227.50;;;7.12;100.00
12624;BME280;6377;42.836;23.998;2023-03-05T06:26:00;95229.59;;;7.17;100.00
12624;BME280;6377;42.836;23.998;2023-03-05T06:28:28;95218.94;;;7.18;100.00
12624;BME280;6377;42.836;23.998;2023-03-05T06:31:00;95225.97;;;7.26;100.00
12624;BME280;6377;42.836;23.998;2023-03-05T06:33:27;95198.38;;;7.14;100.00
12624;BME280;6377;42.836;23.998;2023-03-05T06:35:54;95227.09;;;7.31;100.00
12624;BME280;6377;42.836;23.998;2023-03-05T06:38:21;95228.25;;;7.29;100.00
12624;BME280;6377;42.836;23.998;2023-03-05T06:40:50;95212.31;;;7.22;100.00
12624;BME280;6377;42.836;23.998;2023-03-05T06:43:18;95212.00;;;7.25;100.00
12624;BME280;6377;42.836;23.998;2023-03-05T06:45:45;95210.00;;;7.36;100.00
12624;BME280;6377;42.836;23.998;2023-03-05T06:48:13;95227.66;;;7.58;100.00
12624;BME280;6377;42.836;23.998;2023-03-05T06:50:40;95232.59;;;7.61;100.00
12624;BME280;6377;42.836;23.998;2023-03-05T06:53:07;95237.22;;;7.59;100.00
12624;BME280;6377;42.836;23.998;2023-03-05T06:55:35;95233.38;;;7.69;100.00
12624;BME280;6377;42.836;23.998;2023-03-05T06:58:07;95232.88;;;7.74;100.00
12624;BME280;6377;42.836;23.998;2023-03-05T07:00:34;95239.75;;;7.83;100.00
12624;BME280;6377;42.836;23.998;2023-03-05T07:03:01;95235.59;;;7.88;100.00
12624;BME280;6377;42.836;23.998;2023-03-05T07:05:28;95210.59;;;7.84;100.00
12624;BME280;6377;42.836;23.998;2023-03-05T07:07:56;95239.44;;;8.09;100.00
12624;BME280;6377;42.836;23.998;2023-03-05T07:10:23;95032.47;;;7.01;100.00
12624;BME280;6377;42.836;23.998;2023-03-05T07:12:50;95228.63;;;8.26;100.00
12624;BME280;6377;42.836;23.998;2023-03-05T07:15:19;95232.41;;;8.32;100.00
12624;BME280;6377;42.836;23.998;2023-03-05T07:17:46;95224.44;;;8.40;100.00
12624;BME280;6377;42.836;23.998;2023-03-05T07:20:13;95229.66;;;8.48;100.00
12624;BME280;6377;42.836;23.998;2023-03-05T07:22:41;95217.00;;;8.43;100.00
12624;BME280;6377;42.836;23.998;2023-03-05T07:25:08;95237.28;;;8.66;100.00
12624;BME280;6377;42.836;23.998;2023-03-05T07:27:36;95239.28;;;8.78;100.00
12624;BME280;6377;42.836;23.998;2023-03-05T07:30:04;95235.44;;;8.89;100.00
12624;BME280;6377;42.836;23.998;2023-03-05T07:32:34;95184.19;;;8.46;100.00
12624;BME280;6377;42.836;23.998;2023-03-05T07:35:02;95177.72;;;8.34;100.00
12624;BME280;6377;42.836;23.998;2023-03-05T07:37:29;95187.81;;;8.22;100.00
12624;BME280;6377;42.836;23.998;2023-03-05T07:39:56;95205.75;;;8.27;100.00
12624;BME280;6377;42.836;23.998;2023-03-05T07:42:24;95235.03;;;8.32;100.00
12624;BME280;6377;42.836;23.998;2023-03-05T07:44:51;95225.66;;;8.29;100.00
12624;BME280;6377;42.836;23.998;2023-03-05T07:47:19;95236.09;;;8.45;100.00
12624;BME280;6377;42.836;23.998;2023-03-05T07:49:49;95233.56;;;8.52;100.00
12624;BME280;6377;42.836;23.998;2023-03-05T07:52:16;95236.50;;;8.57;100.00
12624;BME280;6377;42.836;23.998;2023-03-05T07:54:43;95240.44;;;8.61;100.00
12624;BME280;6377;42.836;23.998;2023-03-05T07:57:11;95266.44;;;8.64;93.09
12624;BME280;6377;42.836;23.998;2023-03-05T07:59:38;95241.19;;;8.70;90.65
12624;BME280;6377;42.836;23.998;2023-03-05T08:02:09;95220.31;;;8.60;89.07
12624;BME280;6377;42.836;23.998;2023-03-05T08:04:37;95246.22;;;8.79;88.41
12624;BME280;6377;42.836;23.998;2023-03-05T08:07:05;95247.31;;;8.85;89.84
12624;BME280;6377;42.836;23.998;2023-03-05T08:09:33;95248.38;;;8.76;90.14
12624;BME280;6377;42.836;23.998;2023-03-05T08:12:00;95232.63;;;8.68;90.37
12624;BME280;6377;42.836;23.998;2023-03-05T08:14:27;95255.59;;;8.82;90.45
12624;BME280;6377;42.836;23.998;2023-03-05T08:16:54;95232.28;;;8.71;90.99
12624;BME280;6377;42.836;23.998;2023-03-05T08:19:22;95255.47;;;8.53;88.86
12624;BME280;6377;42.836;23.998;2023-03-05T08:21:49;95257.06;;;8.39;87.29
12624;BME280;6377;42.836;23.998;2023-03-05T08:24:17;95110.81;;;7.44;88.68
12624;BME280;6377;42.836;23.998;2023-03-05T08:26:45;95232.06;;;8.04;89.18
12624;BME280;6377;42.836;23.998;2023-03-05T08:29:12;95252.47;;;8.02;89.41
12624;BME280;6377;42.836;23.998;2023-03-05T08:31:39;95232.28;;;7.95;91.11
12624;BME280;6377;42.836;23.998;2023-03-05T08:34:10;95254.94;;;8.04;87.24
12624;BME280;6377;42.836;23.998;2023-03-05T08:36:38;95258.69;;;8.09;86.14
12624;BME280;6377;42.836;23.998;2023-03-05T08:39:05;95251.56;;;8.18;87.96
12624;BME280;6377;42.836;23.998;2023-03-05T08:41:34;95252.31;;;8.34;91.67
12624;BME280;6377;42.836;23.998;2023-03-05T08:44:02;95247.28;;;8.48;88.93
12624;BME280;6377;42.836;23.998;2023-03-05T08:46:29;95245.69;;;8.61;85.79
12624;BME280;6377;42.836;23.998;2023-03-05T08:48:56;95235.78;;;8.63;85.09
12624;BME280;6377;42.836;23.998;2023-03-05T08:51:25;95237.31;;;8.58;79.38
12624;BME280;6377;42.836;23.998;2023-03-05T08:53:54;95228.22;;;8.60;81.07
12624;BME280;6377;42.836;23.998;2023-03-05T08:56:21;95234.59;;;8.51;77.83
12624;BME280;6377;42.836;23.998;2023-03-05T08:58:52;95231.53;;;8.39;77.87
12624;BME280;6377;42.836;23.998;2023-03-05T09:01:19;95223.63;;;8.39;78.44
12624;BME280;6377;42.836;23.998;2023-03-05T09:03:47;95230.94;;;8.52;79.46
12624;BME280;6377;42.836;23.998;2023-03-05T09:06:14;95226.06;;;8.64;81.68
12624;BME280;6377;42.836;23.998;2023-03-05T09:08:41;95226.47;;;8.75;80.77
12624;BME280;6377;42.836;23.998;2023-03-05T09:11:10;95223.38;;;8.72;76.62
12624;BME280;6377;42.836;23.998;2023-03-05T09:13:38;95218.75;;;8.74;75.19
12624;BME280;6377;42.836;23.998;2023-03-05T09:16:10;95206.13;;;8.84;78.69
12624;BME280;6377;42.836;23.998;2023-03-05T09:18:38;95194.34;;;8.94;77.44
12624;BME280;6377;42.836;23.998;2023-03-05T09:21:06;95192.06;;;8.91;72.46
12624;BME280;6377;42.836;23.998;2023-03-05T09:23:34;95199.63;;;9.09;78.26
12624;BME280;6377;42.836;23.998;2023-03-05T09:26:03;95203.44;;;9.07;73.68
12624;BME280;6377;42.836;23.998;2023-03-05T09:28:31;95205.88;;;9.08;74.21
12624;BME280;6377;42.836;23.998;2023-03-05T09:31:01;95200.16;;;9.05;75.37
12624;BME280;6377;42.836;23.998;2023-03-05T09:33:30;95177.41;;;8.89;73.20
12624;BME280;6377;42.836;23.998;2023-03-05T09:35:58;95187.31;;;9.01;72.66
12624;BME280;6377;42.836;23.998;2023-03-05T09:38:25;95138.38;;;8.84;72.76
12624;BME280;6377;42.836;23.998;2023-03-05T09:40:58;95184.53;;;9.18;71.68
12624;BME280;6377;42.836;23.998;2023-03-05T09:43:38;95181.97;;;9.39;70.29
12624;BME280;6377;42.836;23.998;2023-03-05T09:46:22;95179.25;;;9.47;69.10
12624;BME280;6377;42.836;23.998;2023-03-05T09:49:01;95148.75;;;9.44;71.68
12624;BME280;6377;42.836;23.998;2023-03-05T09:51:35;95165.94;;;9.55;69.45
12624;BME280;6377;42.836;23.998;2023-03-05T09:54:09;95096.44;;;9.33;72.96
12624;BME280;6377;42.836;23.998;2023-03-05T09:56:40;95158.38;;;10.02;68.50
12624;BME280;6377;42.836;23.998;2023-03-05T09:59:18;95159.94;;;10.33;69.95
12624;BME280;6377;42.836;23.998;2023-03-05T10:01:48;95149.13;;;10.77;68.93
12624;BME280;6377;42.836;23.998;2023-03-05T10:04:20;95144.50;;;11.19;67.06
12624;BME280;6377;42.836;23.998;2023-03-05T10:06:54;95145.34;;;11.20;64.18
12624;BME280;6377;42.836;23.998;2023-03-05T10:09:35;95143.34;;;11.29;61.88
12624;BME280;6377;42.836;23.998;2023-03-05T10:12:13;95145.22;;;11.35;58.69
12624;BME280;6377;42.836;23.998;2023-03-05T10:14:43;95133.09;;;11.12;60.22
12624;BME280;6377;42.836;23.998;2023-03-05T10:17:30;95088.72;;;10.80;58.91
12624;BME280;6377;42.836;23.998;2023-03-05T10:20:19;95017.13;;;10.54;61.32
12624;BME280;6377;42.836;23.998;2023-03-05T10:23:09;95132.84;;;11.07;58.72
12624;BME280;6377;42.836;23.998;2023-03-05T10:25:53;95135.72;;;11.12;59.40
12624;BME280;6377;42.836;23.998;2023-03-05T10:28:28;95110.44;;;11.03;59.05
12624;BME280;6377;42.836;23.998;2023-03-05T10:31:16;95122.84;;;11.44;56.54
12624;BME280;6377;42.836;23.998;2023-03-05T10:33:57;95098.50;;;11.20;58.06
12624;BME280;6377;42.836;23.998;2023-03-05T10:36:41;95110.09;;;10.85;54.91
12624;BME280;6377;42.836;23.998;2023-03-05T10:42:27;95102.81;;;10.59;59.78
12624;BME280;6377;42.836;23.998;2023-03-05T10:44:57;95103.59;;;10.60;59.38
12624;BME280;6377;42.836;23.998;2023-03-05T10:47:29;95098.69;;;10.57;59.78
12624;BME280;6377;42.836;23.998;2023-03-05T10:49:58;95095.16;;;10.71;57.76
12624;BME280;6377;42.836;23.998;2023-03-05T10:52:30;94988.63;;;10.15;57.02
12624;BME280;6377;42.836;23.998;2023-03-05T10:54:59;95083.59;;;10.79;56.58
12624;BME280;6377;42.836;23.998;2023-03-05T10:57:28;95078.91;;;10.74;56.50
12624;BME280;6377;42.836;23.998;2023-03-05T11:00:00;95079.28;;;10.71;55.82
12624;BME280;6377;42.836;23.998;2023-03-05T11:02:33;95072.22;;;10.78;57.19
12624;BME280;6377;42.836;23.998;2023-03-05T11:05:43;95018.16;;;10.25;53.93
12624;BME280;6377;42.836;23.998;2023-03-05T11:08:30;95058.53;;;10.75;55.21
12624;BME280;6377;42.836;23.998;2023-03-05T11:11:10;95039.13;;;10.61;54.55
12624;BME280;6377;42.836;23.998;2023-03-05T11:13:43;95048.91;;;10.60;53.75
12624;BME280;6377;42.836;23.998;2023-03-05T11:16:17;95022.41;;;10.54;54.80
12624;BME280;6377;42.836;23.998;2023-03-05T11:18:45;94953.97;;;10.10;53.61
12624;BME280;6377;42.836;23.998;2023-03-05T11:21:19;95042.94;;;10.80;53.85
12624;BME280;6377;42.836;23.998;2023-03-05T11:24:10;95032.97;;;10.82;53.39
12624;BME280;6377;42.836;23.998;2023-03-05T11:26:47;95016.13;;;10.96;53.13
12624;BME280;6377;42.836;23.998;2023-03-05T11:29:20;95020.13;;;11.19;52.89
12624;BME280;6377;42.836;23.998;2023-03-05T11:31:48;94837.94;;;10.08;53.04
12624;BME280;6377;42.836;23.998;2023-03-05T11:34:28;95005.69;;;11.29;50.13
12624;BME280;6377;42.836;23.998;2023-03-05T11:37:02;95012.63;;;11.36;49.97
12624;BME280;6377;42.836;23.998;2023-03-05T11:39:33;94980.59;;;11.11;49.37
12624;BME280;6377;42.836;23.998;2023-03-05T11:42:05;94945.06;;;10.86;50.04
12624;BME280;6377;42.836;23.998;2023-03-05T11:44:40;94995.91;;;11.22;50.77
12624;BME280;6377;42.836;23.998;2023-03-05T11:47:17;94991.00;;;11.19;49.19
12624;BME280;6377;42.836;23.998;2023-03-05T11:49:48;94984.50;;;11.29;49.08
12624;BME280;6377;42.836;23.998;2023-03-05T11:52:21;94961.84;;;11.13;50.56
12624;BME280;6377;42.836;23.998;2023-03-05T11:55:02;94979.44;;;11.40;49.62
12624;BME280;6377;42.836;23.998;2023-03-05T11:57:39;94957.44;;;11.33;50.33
12624;BME280;6377;42.836;23.998;2023-03-05T12:00:15;94972.31;;;11.34;48.91
12624;BME280;6377;42.836;23.998;2023-03-05T12:02:44;94921.34;;;11.06;50.58
12624;BME280;6377;42.836;23.998;2023-03-05T12:05:14;94951.78;;;11.49;49.44
12624;BME280;6377;42.836;23.998;2023-03-05T12:07:44;94943.84;;;11.56;48.13
12624;BME280;6377;42.836;23.998;2023-03-05T12:10:17;94920.63;;;11.45;51.02
12624;BME280;6377;42.836;23.998;2023-03-05T12:12:48;94888.84;;;11.58;49.63
12624;BME280;6377;42.836;23.998;2023-03-05T12:15:40;94932.50;;;11.88;46.54
12624;BME280;6377;42.836;23.998;2023-03-05T12:18:20;94933.69;;;12.05;46.20
12624;BME280;6377;42.836;23.998;2023-03-05T12:20:59;94892.53;;;12.03;45.78
12624;BME280;6377;42.836;23.998;2023-03-05T12:23:28;94918.59;;;12.19;46.82
12624;BME280;6377;42.836;23.998;2023-03-05T12:26:11;94922.09;;;12.00;45.12
12624;BME280;6377;42.836;23.998;2023-03-05T12:28:55;94885.22;;;11.78;44.23
12624;BME280;6377;42.836;23.998;2023-03-05T12:31:33;94910.84;;;12.04;45.25
12624;BME280;6377;42.836;23.998;2023-03-05T12:36:58;94875.41;;;11.46;46.09
12624;BME280;6377;42.836;23.998;2023-03-05T12:39:58;94904.13;;;11.69;46.04
12624;BME280;6377;42.836;23.998;2023-03-05T12:42:56;94905.16;;;11.61;45.45
12624;BME280;6377;42.836;23.998;2023-03-05T12:45:40;94899.63;;;11.43;45.61
12624;BME280;6377;42.836;23.998;2023-03-05T12:51:27;94902.66;;;11.34;47.40
12624;BME280;6377;42.836;23.998;2023-03-05T12:53:55;94895.72;;;11.19;48.91
12624;BME280;6377;42.836;23.998;2023-03-05T12:56:28;94896.75;;;11.32;46.77
12624;BME280;6377;42.836;23.998;2023-03-05T12:58:59;94902.66;;;11.20;46.84
12624;BME280;6377;42.836;23.998;2023-03-05T13:01:37;94896.31;;;11.21;47.02
12624;BME280;6377;42.836;23.998;2023-03-05T13:04:14;94894.91;;;11.12;46.12
12624;BME280;6377;42.836;23.998;2023-03-05T13:06:44;94892.88;;;11.21;45.80
12624;BME280;6377;42.836;23.998;2023-03-05T13:09:23;94882.06;;;11.16;47.32
12624;BME280;6377;42.836;23.998;2023-03-05T13:11:53;94892.09;;;11.40;47.66
12624;BME280;6377;42.836;23.998;2023-03-05T13:14:32;94883.09;;;11.28;45.28
12624;BME280;6377;42.836;23.998;2023-03-05T13:17:00;94892.88;;;11.21;45.74
12624;BME280;6377;42.836;23.998;2023-03-05T13:19:28;94880.44;;;11.21;46.65
12624;BME280;6377;42.836;23.998;2023-03-05T13:22:02;94885.34;;;11.24;47.65
12624;BME280;6377;42.836;23.998;2023-03-05T13:24:29;94884.31;;;11.12;47.08
12624;BME280;6377;42.836;23.998;2023-03-05T13:26:57;94886.53;;;11.09;47.45